Home   Weather   Gull Island   Past weeks
Flag for Canada

Past Weather in Gull Island, Newfoundland and Labrador, Canada — Yesterday and Last 2 Weeks

Currently: 64 °F. Fog. (Weather station: St. John's, Canada). See more current weather

Past Weather in Gull Island — Graph

°F

Gull Island Temperature Yesterday

Maximum temperature yesterday: 73 °F (at 2:30 pm)
Minimum temperature yesterday: 64 °F (at 5:00 am)
Average temperature yesterday: 68 °F

High & Low Weather Summary for the Past Weeks

 TemperatureHumidityPressure
High82 °F (Jul 13, 4:30 pm)100% (Jul 3, 3:30 am)30.21 "Hg (Jul 3, 3:30 am)
Low45 °F (Jul 4, 4:30 am)32% (Jul 8, 5:30 pm)29.70 "Hg (Jul 17, 6:30 pm)
Average63 °F89%29.94 "Hg
* Reported Jul 3 3:30 am — Jul 18 3:30 am, Gull Island. Weather by CustomWeather, © 2024

Note: Actual official high and low records may vary slightly from our data, if they occured in-between our weather recording intervals... More about our weather records

Gull Island Weather History for the Previous 24 Hours

Scroll right to see more
 ConditionsComfort  
Time TempWeatherWind HumidityBarometerVisibility
3:30 am
Thu, Jul 18
64 °FFog.10 mph100%29.78 "Hg0 mi
2:30 am64 °FFog.13 mph100%29.78 "Hg0 mi
1:30 am64 °FFog.14 mph100%29.78 "Hg1 mi
12:30 am64 °FFog.17 mph100%29.77 "Hg1 mi
11:30 pm
Wed, Jul 17
64 °FFog.16 mph100%29.75 "Hg1 mi
10:58 pm66 °FFog.16 mph100%29.75 "Hg1 mi
10:30 pm66 °FLow clouds.16 mph100%29.75 "Hg12 mi
10:14 pm66 °FLow clouds.14 mph100%29.75 "Hg12 mi
9:30 pm66 °FLow clouds.18 mph100%29.73 "Hg15 mi
9:10 pm66 °FLow clouds.17 mph100%29.73 "Hg12 mi
8:30 pm66 °FLow clouds.17 mph94%29.72 "Hg15 mi
7:30 pm68 °FPartly sunny.17 mph88%29.71 "Hg15 mi
6:30 pm70 °FBroken clouds.23 mph88%29.70 "Hg15 mi
5:30 pm70 °FBroken clouds.25 mph88%29.70 "Hg15 mi
4:30 pm73 °FBroken clouds.26 mph78%29.70 "Hg15 mi
3:30 pm70 °FPartly sunny.24 mph88%29.72 "Hg15 mi
2:30 pm73 °FBroken clouds.23 mph78%29.71 "Hg15 mi
1:30 pm72 °FMostly cloudy.23 mph83%29.71 "Hg13 mi
12:30 pm70 °FPartly sunny.25 mph88%29.70 "Hg13 mi
11:30 am72 °FPartly sunny.22 mph83%29.71 "Hg12 mi
11:03 am70 °FLow clouds.20 mph88%29.72 "Hg12 mi
10:30 am70 °FPartly sunny.22 mph88%29.72 "Hg14 mi
9:42 am72 °FPartly sunny.22 mph88%29.73 "Hg15 mi
9:09 am70 °FBroken clouds.21 mph94%29.74 "Hg12 mi
8:30 am68 °FLow clouds.16 mph94%29.77 "Hg10 mi
7:38 am68 °FLow clouds.16 mph100%29.77 "Hg10 mi
6:30 am66 °FFog.17 mph100%29.78 "Hg6 mi
6:05 am64 °FFog.15 mph100%29.78 "Hg1 mi
5:30 am64 °FFog.16 mph100%29.79 "Hg1 mi
5:00 am64 °FFog.17 mph100%29.80 "Hg6 mi
Weather by CustomWeather, © 2024

See weather overview